sensor_id;sensor_type;location;lat;lon;timestamp;temperature;humidity
2723;DHT22;1369;53.216;10.396;2023-10-31T00:01:20;11.90;99.90
2723;DHT22;1369;53.216;10.396;2023-10-31T00:03:46;11.90;99.90
2723;DHT22;1369;53.216;10.396;2023-10-31T00:06:12;11.90;99.90
2723;DHT22;1369;53.216;10.396;2023-10-31T00:08:37;11.90;99.90
2723;DHT22;1369;53.216;10.396;2023-10-31T00:11:03;11.80;99.90
2723;DHT22;1369;53.216;10.396;2023-10-31T00:13:28;11.80;99.90
2723;DHT22;1369;53.216;10.396;2023-10-31T00:15:54;11.80;99.90
2723;DHT22;1369;53.216;10.396;2023-10-31T00:18:20;11.80;99.90
2723;DHT22;1369;53.216;10.396;2023-10-31T00:20:46;11.90;99.90
2723;DHT22;1369;53.216;10.396;2023-10-31T00:23:12;11.80;99.90
2723;DHT22;1369;53.216;10.396;2023-10-31T00:25:37;11.80;99.90
2723;DHT22;1369;53.216;10.396;2023-10-31T00:28:03;11.80;99.90
2723;DHT22;1369;53.216;10.396;2023-10-31T00:30:29;11.80;99.90
2723;DHT22;1369;53.216;10.396;2023-10-31T00:32:54;11.80;99.90
2723;DHT22;1369;53.216;10.396;2023-10-31T00:35:20;11.80;99.90
2723;DHT22;1369;53.216;10.396;2023-10-31T00:37:46;11.90;99.90
2723;DHT22;1369;53.216;10.396;2023-10-31T00:40:11;11.80;99.90
2723;DHT22;1369;53.216;10.396;2023-10-31T00:42:38;11.90;99.90
2723;DHT22;1369;53.216;10.396;2023-10-31T00:45:04;11.90;99.90
2723;DHT22;1369;53.216;10.396;2023-10-31T00:47:30;11.90;99.90
2723;DHT22;1369;53.216;10.396;2023-10-31T00:49:56;11.90;99.90
2723;DHT22;1369;53.216;10.396;2023-10-31T00:52:21;11.90;99.90
2723;DHT22;1369;53.216;10.396;2023-10-31T00:54:47;11.90;99.90
2723;DHT22;1369;53.216;10.396;2023-10-31T00:57:12;11.90;99.90
2723;DHT22;1369;53.216;10.396;2023-10-31T00:59:38;11.90;99.90
2723;DHT22;1369;53.216;10.396;2023-10-31T01:02:04;11.80;99.90
2723;DHT22;1369;53.216;10.396;2023-10-31T01:04:30;11.90;99.90
2723;DHT22;1369;53.216;10.396;2023-10-31T01:06:56;11.80;99.90
2723;DHT22;1369;53.216;10.396;2023-10-31T01:09:22;11.80;99.90
2723;DHT22;1369;53.216;10.396;2023-10-31T01:11:48;11.90;99.90
2723;DHT22;1369;53.216;10.396;2023-10-31T01:14:13;11.90;99.90
2723;DHT22;1369;53.216;10.396;2023-10-31T01:16:40;11.90;99.90
2723;DHT22;1369;53.216;10.396;2023-10-31T01:19:05;11.90;99.90
2723;DHT22;1369;53.216;10.396;2023-10-31T01:21:31;11.90;99.90
2723;DHT22;1369;53.216;10.396;2023-10-31T01:23:58;11.90;99.90
2723;DHT22;1369;53.216;10.396;2023-10-31T01:26:24;11.80;99.90
2723;DHT22;1369;53.216;10.396;2023-10-31T01:28:49;11.80;99.90
2723;DHT22;1369;53.216;10.396;2023-10-31T01:31:15;11.80;99.90
2723;DHT22;1369;53.216;10.396;2023-10-31T01:33:41;11.90;99.90
2723;DHT22;1369;53.216;10.396;2023-10-31T01:36:06;11.90;99.90
2723;DHT22;1369;53.216;10.396;2023-10-31T01:38:32;11.90;99.90
2723;DHT22;1369;53.216;10.396;2023-10-31T01:40:58;11.90;99.90
2723;DHT22;1369;53.216;10.396;2023-10-31T01:43:34;11.90;99.90
2723;DHT22;1369;53.216;10.396;2023-10-31T01:46:00;11.90;99.90
2723;DHT22;1369;53.216;10.396;2023-10-31T01:48:29;11.90;99.90
2723;DHT22;1369;53.216;10.396;2023-10-31T01:50:56;11.90;99.90
2723;DHT22;1369;53.216;10.396;2023-10-31T01:53:23;11.90;99.90
2723;DHT22;1369;53.216;10.396;2023-10-31T01:55:50;11.90;99.90
2723;DHT22;1369;53.216;10.396;2023-10-31T01:58:18;11.90;99.90
2723;DHT22;1369;53.216;10.396;2023-10-31T02:00:46;11.90;99.90
2723;DHT22;1369;53.216;10.396;2023-10-31T02:03:12;11.90;99.90
2723;DHT22;1369;53.216;10.396;2023-10-31T02:05:38;11.90;99.90
2723;DHT22;1369;53.216;10.396;2023-10-31T02:08:05;11.90;99.90
2723;DHT22;1369;53.216;10.396;2023-10-31T02:10:34;11.90;99.90
2723;DHT22;1369;53.216;10.396;2023-10-31T02:13:10;11.90;99.90
2723;DHT22;1369;53.216;10.396;2023-10-31T02:15:36;11.90;99.90
2723;DHT22;1369;53.216;10.396;2023-10-31T02:18:02;11.90;99.90
2723;DHT22;1369;53.216;10.396;2023-10-31T02:20:28;11.90;99.90
2723;DHT22;1369;53.216;10.396;2023-10-31T02:22:53;11.90;99.90
2723;DHT22;1369;53.216;10.396;2023-10-31T02:25:19;11.90;99.90
2723;DHT22;1369;53.216;10.396;2023-10-31T02:27:45;12.00;99.90
2723;DHT22;1369;53.216;10.396;2023-10-31T02:30:11;11.90;99.90
2723;DHT22;1369;53.216;10.396;2023-10-31T02:32:37;11.90;99.90
2723;DHT22;1369;53.216;10.396;2023-10-31T02:35:02;11.90;99.90
2723;DHT22;1369;53.216;10.396;2023-10-31T02:37:28;12.00;99.90
2723;DHT22;1369;53.216;10.396;2023-10-31T02:39:54;12.00;99.90
2723;DHT22;1369;53.216;10.396;2023-10-31T02:42:19;12.00;99.90
2723;DHT22;1369;53.216;10.396;2023-10-31T02:44:45;12.00;99.90
2723;DHT22;1369;53.216;10.396;2023-10-31T02:47:10;12.00;99.90
2723;DHT22;1369;53.216;10.396;2023-10-31T02:49:36;12.00;99.90
2723;DHT22;1369;53.216;10.396;2023-10-31T02:52:02;12.00;99.90
2723;DHT22;1369;53.216;10.396;2023-10-31T02:54:27;12.00;99.90
2723;DHT22;1369;53.216;10.396;2023-10-31T02:56:53;12.00;99.90
2723;DHT22;1369;53.216;10.396;2023-10-31T02:59:18;12.00;99.90
2723;DHT22;1369;53.216;10.396;2023-10-31T03:01:44;12.00;99.90
2723;DHT22;1369;53.216;10.396;2023-10-31T03:04:09;12.10;99.90
2723;DHT22;1369;53.216;10.396;2023-10-31T03:06:35;12.00;99.90
2723;DHT22;1369;53.216;10.396;2023-10-31T03:09:00;12.10;99.90
2723;DHT22;1369;53.216;10.396;2023-10-31T03:11:26;12.10;99.90
2723;DHT22;1369;53.216;10.396;2023-10-31T03:13:52;12.10;99.90
2723;DHT22;1369;53.216;10.396;2023-10-31T03:16:22;12.10;99.90
2723;DHT22;1369;53.216;10.396;2023-10-31T03:18:48;12.10;99.90
2723;DHT22;1369;53.216;10.396;2023-10-31T03:21:14;12.10;99.90
2723;DHT22;1369;53.216;10.396;2023-10-31T03:23:41;12.10;99.90
2723;DHT22;1369;53.216;10.396;2023-10-31T03:26:07;12.20;99.90
2723;DHT22;1369;53.216;10.396;2023-10-31T03:28:32;12.20;99.90
2723;DHT22;1369;53.216;10.396;2023-10-31T03:30:58;12.10;99.90
2723;DHT22;1369;53.216;10.396;2023-10-31T03:33:23;12.20;99.90
2723;DHT22;1369;53.216;10.396;2023-10-31T03:35:49;12.20;99.90
2723;DHT22;1369;53.216;10.396;2023-10-31T03:38:15;12.20;99.90
2723;DHT22;1369;53.216;10.396;2023-10-31T03:40:40;12.20;99.90
2723;DHT22;1369;53.216;10.396;2023-10-31T03:43:06;12.20;99.90
2723;DHT22;1369;53.216;10.396;2023-10-31T03:45:32;12.20;99.90
2723;DHT22;1369;53.216;10.396;2023-10-31T03:47:58;12.20;99.90
2723;DHT22;1369;53.216;10.396;2023-10-31T03:50:24;12.20;99.90
2723;DHT22;1369;53.216;10.396;2023-10-31T03:52:49;12.30;99.90
2723;DHT22;1369;53.216;10.396;2023-10-31T03:55:15;12.30;99.90
2723;DHT22;1369;53.216;10.396;2023-10-31T03:57:40;12.30;99.90
2723;DHT22;1369;53.216;10.396;2023-10-31T04:00:06;12.30;99.90
2723;DHT22;1369;53.216;10.396;2023-10-31T04:02:33;12.30;99.90
2723;DHT22;1369;53.216;10.396;2023-10-31T04:04:58;12.40;99.90
2723;DHT22;1369;53.216;10.396;2023-10-31T04:07:24;12.40;99.90
2723;DHT22;1369;53.216;10.396;2023-10-31T04:09:50;12.40;99.90
2723;DHT22;1369;53.216;10.396;2023-10-31T04:12:16;12.40;99.90
2723;DHT22;1369;53.216;10.396;2023-10-31T04:14:42;12.30;99.90
2723;DHT22;1369;53.216;10.396;2023-10-31T04:17:07;12.30;99.90
2723;DHT22;1369;53.216;10.396;2023-10-31T04:19:33;12.40;99.90
2723;DHT22;1369;53.216;10.396;2023-10-31T04:21:58;12.40;99.90
2723;DHT22;1369;53.216;10.396;2023-10-31T04:24:24;12.40;99.90
2723;DHT22;1369;53.216;10.396;2023-10-31T04:26:49;12.40;99.90
2723;DHT22;1369;53.216;10.396;2023-10-31T04:29:15;12.50;99.90
2723;DHT22;1369;53.216;10.396;2023-10-31T04:31:41;12.50;99.90
2723;DHT22;1369;53.216;10.396;2023-10-31T04:34:06;12.50;99.90
2723;DHT22;1369;53.216;10.396;2023-10-31T04:36:32;12.50;99.90
2723;DHT22;1369;53.216;10.396;2023-10-31T04:38:58;12.50;99.90
2723;DHT22;1369;53.216;10.396;2023-10-31T04:41:23;12.50;99.90
2723;DHT22;1369;53.216;10.396;2023-10-31T04:43:49;12.40;99.90
2723;DHT22;1369;53.216;10.396;2023-10-31T04:46:14;12.50;99.90
2723;DHT22;1369;53.216;10.396;2023-10-31T04:48:40;12.50;99.90
2723;DHT22;1369;53.216;10.396;2023-10-31T04:51:06;12.60;99.90
2723;DHT22;1369;53.216;10.396;2023-10-31T04:53:31;12.60;99.90
2723;DHT22;1369;53.216;10.396;2023-10-31T04:55:58;12.60;99.90
2723;DHT22;1369;53.216;10.396;2023-10-31T04:58:24;12.60;99.90
2723;DHT22;1369;53.216;10.396;2023-10-31T05:03:32;12.60;99.90
2723;DHT22;1369;53.216;10.396;2023-10-31T05:05:57;12.60;99.90
2723;DHT22;1369;53.216;10.396;2023-10-31T05:08:23;12.60;99.90
2723;DHT22;1369;53.216;10.396;2023-10-31T05:10:48;12.70;99.90
2723;DHT22;1369;53.216;10.396;2023-10-31T05:13:14;12.60;99.90
2723;DHT22;1369;53.216;10.396;2023-10-31T05:15:40;12.70;99.90
2723;DHT22;1369;53.216;10.396;2023-10-31T05:18:05;12.70;99.90
2723;DHT22;1369;53.216;10.396;2023-10-31T05:20:31;12.70;99.90
2723;DHT22;1369;53.216;10.396;2023-10-31T05:22:57;12.70;99.90
2723;DHT22;1369;53.216;10.396;2023-10-31T05:25:22;12.70;99.90
2723;DHT22;1369;53.216;10.396;2023-10-31T05:27:48;12.70;99.90
2723;DHT22;1369;53.216;10.396;2023-10-31T05:30:14;12.70;99.90
2723;DHT22;1369;53.216;10.396;2023-10-31T05:32:40;12.70;99.90
2723;DHT22;1369;53.216;10.396;2023-10-31T05:35:06;12.70;99.90
2723;DHT22;1369;53.216;10.396;2023-10-31T05:37:31;12.70;99.90
2723;DHT22;1369;53.216;10.396;2023-10-31T05:39:57;12.70;99.90
2723;DHT22;1369;53.216;10.396;2023-10-31T05:42:23;12.70;99.90
2723;DHT22;1369;53.216;10.396;2023-10-31T05:44:49;12.70;99.90
2723;DHT22;1369;53.216;10.396;2023-10-31T05:47:15;12.70;99.90
2723;DHT22;1369;53.216;10.396;2023-10-31T05:49:43;12.70;99.90
2723;DHT22;1369;53.216;10.396;2023-10-31T05:52:08;12.70;99.90
2723;DHT22;1369;53.216;10.396;2023-10-31T05:54:34;12.70;99.90
2723;DHT22;1369;53.216;10.396;2023-10-31T05:57:00;12.70;99.90
2723;DHT22;1369;53.216;10.396;2023-10-31T05:59:25;12.70;99.90
2723;DHT22;1369;53.216;10.396;2023-10-31T06:01:51;12.70;99.90
2723;DHT22;1369;53.216;10.396;2023-10-31T06:04:19;12.70;99.90
2723;DHT22;1369;53.216;10.396;2023-10-31T06:06:44;12.70;99.90
2723;DHT22;1369;53.216;10.396;2023-10-31T06:09:10;12.60;99.90
2723;DHT22;1369;53.216;10.396;2023-10-31T06:11:36;12.60;99.90
2723;DHT22;1369;53.216;10.396;2023-10-31T06:14:01;12.60;99.90
2723;DHT22;1369;53.216;10.396;2023-10-31T06:16:27;12.50;99.90
2723;DHT22;1369;53.216;10.396;2023-10-31T06:18:53;12.50;99.90
2723;DHT22;1369;53.216;10.396;2023-10-31T06:21:18;12.40;99.90
2723;DHT22;1369;53.216;10.396;2023-10-31T06:23:44;12.40;99.90
2723;DHT22;1369;53.216;10.396;2023-10-31T06:26:11;12.40;99.90
2723;DHT22;1369;53.216;10.396;2023-10-31T06:28:37;12.40;99.90
2723;DHT22;1369;53.216;10.396;2023-10-31T06:31:04;12.40;99.90
2723;DHT22;1369;53.216;10.396;2023-10-31T06:33:30;12.30;99.90
2723;DHT22;1369;53.216;10.396;2023-10-31T06:35:56;12.30;99.90
2723;DHT22;1369;53.216;10.396;2023-10-31T06:38:21;12.30;99.90
2723;DHT22;1369;53.216;10.396;2023-10-31T06:40:47;12.30;99.90
2723;DHT22;1369;53.216;10.396;2023-10-31T06:43:13;12.30;99.90
2723;DHT22;1369;53.216;10.396;2023-10-31T06:45:39;12.20;99.90
2723;DHT22;1369;53.216;10.396;2023-10-31T06:48:05;12.20;99.90
2723;DHT22;1369;53.216;10.396;2023-10-31T06:50:32;12.10;99.90
2723;DHT22;1369;53.216;10.396;2023-10-31T06:52:58;12.10;99.90
2723;DHT22;1369;53.216;10.396;2023-10-31T06:55:24;12.00;99.90
2723;DHT22;1369;53.216;10.396;2023-10-31T06:57:49;12.00;99.90
2723;DHT22;1369;53.216;10.396;2023-10-31T07:00:15;12.00;99.90
2723;DHT22;1369;53.216;10.396;2023-10-31T07:02:41;12.00;99.90
2723;DHT22;1369;53.216;10.396;2023-10-31T07:05:07;11.90;99.90
2723;DHT22;1369;53.216;10.396;2023-10-31T07:07:33;11.90;99.90
2723;DHT22;1369;53.216;10.396;2023-10-31T07:09:58;11.90;99.90
2723;DHT22;1369;53.216;10.396;2023-10-31T07:12:25;11.90;99.90
2723;DHT22;1369;53.216;10.396;2023-10-31T07:14:50;11.90;99.90
2723;DHT22;1369;53.216;10.396;2023-10-31T07:17:16;11.80;99.90
2723;DHT22;1369;53.216;10.396;2023-10-31T07:19:42;11.80;99.90
2723;DHT22;1369;53.216;10.396;2023-10-31T07:22:07;11.80;99.90
2723;DHT22;1369;53.216;10.396;2023-10-31T07:24:33;11.70;99.90
2723;DHT22;1369;53.216;10.396;2023-10-31T07:26:59;11.70;99.90
2723;DHT22;1369;53.216;10.396;2023-10-31T07:29:25;11.70;99.90
2723;DHT22;1369;53.216;10.396;2023-10-31T07:31:50;11.70;99.90
2723;DHT22;1369;53.216;10.396;2023-10-31T07:34:16;11.70;99.90
2723;DHT22;1369;53.216;10.396;2023-10-31T07:36:42;11.70;99.90
2723;DHT22;1369;53.216;10.396;2023-10-31T07:39:09;11.70;99.90
2723;DHT22;1369;53.216;10.396;2023-10-31T07:41:35;11.70;99.90
2723;DHT22;1369;53.216;10.396;2023-10-31T07:44:00;11.70;99.90
2723;DHT22;1369;53.216;10.396;2023-10-31T07:46:26;11.70;99.90
2723;DHT22;1369;53.216;10.396;2023-10-31T07:48:52;11.70;99.90
2723;DHT22;1369;53.216;10.396;2023-10-31T07:51:17;11.70;99.90
2723;DHT22;1369;53.216;10.396;2023-10-31T07:53:43;11.70;99.90
2723;DHT22;1369;53.216;10.396;2023-10-31T07:56:16;11.80;99.90
2723;DHT22;1369;53.216;10.396;2023-10-31T07:58:42;11.80;99.90
2723;DHT22;1369;53.216;10.396;2023-10-31T08:01:07;11.70;99.90
2723;DHT22;1369;53.216;10.396;2023-10-31T08:03:39;11.70;99.90
2723;DHT22;1369;53.216;10.396;2023-10-31T08:06:08;11.70;99.90
2723;DHT22;1369;53.216;10.396;2023-10-31T08:08:33;11.70;99.90
2723;DHT22;1369;53.216;10.396;2023-10-31T08:11:02;11.70;99.90
2723;DHT22;1369;53.216;10.396;2023-10-31T08:13:29;11.70;99.90
2723;DHT22;1369;53.216;10.396;2023-10-31T08:15:55;11.70;99.90
2723;DHT22;1369;53.216;10.396;2023-10-31T08:18:23;11.70;99.90
2723;DHT22;1369;53.216;10.396;2023-10-31T08:20:48;11.70;99.90
2723;DHT22;1369;53.216;10.396;2023-10-31T08:23:17;11.80;99.90
2723;DHT22;1369;53.216;10.396;2023-10-31T08:25:43;11.70;99.90
2723;DHT22;1369;53.216;10.396;2023-10-31T08:28:09;11.80;99.90
2723;DHT22;1369;53.216;10.396;2023-10-31T08:30:35;11.80;99.90
2723;DHT22;1369;53.216;10.396;2023-10-31T08:33:01;11.80;99.90
2723;DHT22;1369;53.216;10.396;2023-10-31T08:35:27;11.80;99.90
2723;DHT22;1369;53.216;10.396;2023-10-31T08:37:53;11.90;99.90
2723;DHT22;1369;53.216;10.396;2023-10-31T08:40:19;12.00;99.90
2723;DHT22;1369;53.216;10.396;2023-10-31T08:42:45;12.10;99.90
2723;DHT22;1369;53.216;10.396;2023-10-31T08:45:11;12.10;99.90
2723;DHT22;1369;53.216;10.396;2023-10-31T08:47:36;12.10;99.90
2723;DHT22;1369;53.216;10.396;2023-10-31T08:50:02;12.20;99.90
2723;DHT22;1369;53.216;10.396;2023-10-31T08:52:28;12.20;99.90
2723;DHT22;1369;53.216;10.396;2023-10-31T08:54:54;12.10;99.90
2723;DHT22;1369;53.216;10.396;2023-10-31T08:57:19;12.00;99.90
2723;DHT22;1369;53.216;10.396;2023-10-31T08:59:45;11.90;99.90
2723;DHT22;1369;53.216;10.396;2023-10-31T09:02:11;11.90;99.90
2723;DHT22;1369;53.216;10.396;2023-10-31T09:04:36;11.80;99.90
2723;DHT22;1369;53.216;10.396;2023-10-31T09:07:02;11.80;99.90
2723;DHT22;1369;53.216;10.396;2023-10-31T09:09:27;11.70;99.90
2723;DHT22;1369;53.216;10.396;2023-10-31T09:11:54;11.70;99.90
2723;DHT22;1369;53.216;10.396;2023-10-31T09:14:20;11.70;99.90
2723;DHT22;1369;53.216;10.396;2023-10-31T09:16:45;11.70;99.90
2723;DHT22;1369;53.216;10.396;2023-10-31T09:19:11;11.70;99.90
2723;DHT22;1369;53.216;10.396;2023-10-31T09:21:37;11.60;99.90
2723;DHT22;1369;53.216;10.396;2023-10-31T09:24:03;11.60;99.90
2723;DHT22;1369;53.216;10.396;2023-10-31T09:26:28;11.60;99.90
2723;DHT22;1369;53.216;10.396;2023-10-31T09:28:54;11.70;99.90
2723;DHT22;1369;53.216;10.396;2023-10-31T09:31:20;11.70;99.90
2723;DHT22;1369;53.216;10.396;2023-10-31T09:33:46;11.80;99.90
2723;DHT22;1369;53.216;10.396;2023-10-31T09:36:12;11.70;99.90
2723;DHT22;1369;53.216;10.396;2023-10-31T09:38:39;11.70;99.90
2723;DHT22;1369;53.216;10.396;2023-10-31T09:41:06;11.80;99.90
2723;DHT22;1369;53.216;10.396;2023-10-31T09:43:31;11.80;99.90
2723;DHT22;1369;53.216;10.396;2023-10-31T09:45:58;11.80;99.90
2723;DHT22;1369;53.216;10.396;2023-10-31T09:48:26;11.90;99.90
2723;DHT22;1369;53.216;10.396;2023-10-31T09:50:52;11.90;99.90
2723;DHT22;1369;53.216;10.396;2023-10-31T09:53:19;12.00;99.90
2723;DHT22;1369;53.216;10.396;2023-10-31T09:55:46;12.00;99.90
2723;DHT22;1369;53.216;10.396;2023-10-31T09:58:12;12.00;99.90
2723;DHT22;1369;53.216;10.396;2023-10-31T10:00:38;11.90;99.90
2723;DHT22;1369;53.216;10.396;2023-10-31T10:03:07;11.90;99.90
2723;DHT22;1369;53.216;10.396;2023-10-31T10:05:36;11.90;99.90
2723;DHT22;1369;53.216;10.396;2023-10-31T10:08:03;12.00;99.90
2723;DHT22;1369;53.216;10.396;2023-10-31T10:10:29;11.90;99.90
2723;DHT22;1369;53.216;10.396;2023-10-31T10:12:55;12.00;99.90
2723;DHT22;1369;53.216;10.396;2023-10-31T10:15:21;11.90;99.90
2723;DHT22;1369;53.216;10.396;2023-10-31T10:17:51;12.00;99.90
2723;DHT22;1369;53.216;10.396;2023-10-31T10:20:18;12.10;99.90
2723;DHT22;1369;53.216;10.396;2023-10-31T10:22:44;12.10;99.90
2723;DHT22;1369;53.216;10.396;2023-10-31T10:25:14;12.00;99.90
2723;DHT22;1369;53.216;10.396;2023-10-31T10:27:44;12.00;99.90
2723;DHT22;1369;53.216;10.396;2023-10-31T10:30:11;12.10;99.90
2723;DHT22;1369;53.216;10.396;2023-10-31T10:32:38;12.10;99.90
2723;DHT22;1369;53.216;10.396;2023-10-31T10:35:04;12.20;99.90
2723;DHT22;1369;53.216;10.396;2023-10-31T10:37:30;12.30;99.90
2723;DHT22;1369;53.216;10.396;2023-10-31T10:39:57;12.30;99.90
2723;DHT22;1369;53.216;10.396;2023-10-31T10:42:32;12.30;99.90
2723;DHT22;1369;53.216;10.396;2023-10-31T10:45:03;12.30;99.90
2723;DHT22;1369;53.216;10.396;2023-10-31T10:47:33;12.30;99.90
2723;DHT22;1369;53.216;10.396;2023-10-31T10:50:01;12.40;99.90
2723;DHT22;1369;53.216;10.396;2023-10-31T10:53:09;12.40;99.90
2723;DHT22;1369;53.216;10.396;2023-10-31T10:55:39;12.30;99.90
2723;DHT22;1369;53.216;10.396;2023-10-31T10:58:11;12.40;99.90
2723;DHT22;1369;53.216;10.396;2023-10-31T11:00:39;12.40;99.90
2723;DHT22;1369;53.216;10.396;2023-10-31T11:03:07;12.50;99.90
2723;DHT22;1369;53.216;10.396;2023-10-31T11:05:33;12.50;99.90
2723;DHT22;1369;53.216;10.396;2023-10-31T11:08:01;12.60;99.90
2723;DHT22;1369;53.216;10.396;2023-10-31T11:10:27;12.70;99.90
2723;DHT22;1369;53.216;10.396;2023-10-31T11:12:54;12.70;99.90
2723;DHT22;1369;53.216;10.396;2023-10-31T11:15:22;12.90;99.90
2723;DHT22;1369;53.216;10.396;2023-10-31T11:17:49;13.00;99.90
2723;DHT22;1369;53.216;10.396;2023-10-31T11:20:18;13.20;99.90
2723;DHT22;1369;53.216;10.396;2023-10-31T11:22:45;13.30;99.90
2723;DHT22;1369;53.216;10.396;2023-10-31T11:25:18;13.30;99.90
2723;DHT22;1369;53.216;10.396;2023-10-31T11:27:46;13.30;99.90
2723;DHT22;1369;53.216;10.396;2023-10-31T11:32:58;13.10;99.90
2723;DHT22;1369;53.216;10.396;2023-10-31T11:35:24;13.00;99.90
2723;DHT22;1369;53.216;10.396;2023-10-31T11:38:04;13.00;99.90
2723;DHT22;1369;53.216;10.396;2023-10-31T11:40:31;13.00;99.90
2723;DHT22;1369;53.216;10.396;2023-10-31T11:42:58;13.10;99.90
2723;DHT22;1369;53.216;10.396;2023-10-31T11:45:40;13.10;99.90
2723;DHT22;1369;53.216;10.396;2023-10-31T11:48:08;13.10;99.90
2723;DHT22;1369;53.216;10.396;2023-10-31T11:50:36;13.10;99.90
2723;DHT22;1369;53.216;10.396;2023-10-31T11:55:39;13.00;99.90
2723;DHT22;1369;53.216;10.396;2023-10-31T11:58:17;12.90;99.90
2723;DHT22;1369;53.216;10.396;2023-10-31T12:00:46;12.90;99.90
2723;DHT22;1369;53.216;10.396;2023-10-31T12:03:16;12.90;99.90
2723;DHT22;1369;53.216;10.396;2023-10-31T12:05:56;13.00;99.90
2723;DHT22;1369;53.216;10.396;2023-10-31T12:08:37;13.00;99.90
2723;DHT22;1369;53.216;10.396;2023-10-31T12:11:22;12.90;99.90
2723;DHT22;1369;53.216;10.396;2023-10-31T12:13:53;12.90;99.90
2723;DHT22;1369;53.216;10.396;2023-10-31T12:16:32;12.90;99.90
2723;DHT22;1369;53.216;10.396;2023-10-31T12:19:00;12.90;99.90
2723;DHT22;1369;53.216;10.396;2023-10-31T12:21:43;12.80;99.90
2723;DHT22;1369;53.216;10.396;2023-10-31T12:24:13;12.70;99.90
2723;DHT22;1369;53.216;10.396;2023-10-31T12:26:44;12.70;99.90
2723;DHT22;1369;53.216;10.396;2023-10-31T12:29:26;12.60;99.90
2723;DHT22;1369;53.216;10.396;2023-10-31T12:31:54;12.60;99.90
2723;DHT22;1369;53.216;10.396;2023-10-31T12:34:24;12.60;99.90
2723;DHT22;1369;53.216;10.396;2023-10-31T12:36:54;12.60;99.90
2723;DHT22;1369;53.216;10.396;2023-10-31T12:39:30;12.50;99.90
2723;DHT22;1369;53.216;10.396;2023-10-31T12:41:56;12.60;99.90
2723;DHT22;1369;53.216;10.396;2023-10-31T12:44:25;12.50;99.90
2723;DHT22;1369;53.216;10.396;2023-10-31T12:46:52;12.60;99.90
2723;DHT22;1369;53.216;10.396;2023-10-31T12:49:19;12.70;99.90
2723;DHT22;1369;53.216;10.396;2023-10-31T12:51:55;12.60;99.90
2723;DHT22;1369;53.216;10.396;2023-10-31T12:54:41;12.40;99.90
2723;DHT22;1369;53.216;10.396;2023-10-31T12:57:08;12.40;99.90
2723;DHT22;1369;53.216;10.396;2023-10-31T12:59:36;12.30;99.90
2723;DHT22;1369;53.216;10.396;2023-10-31T13:02:03;12.30;99.90
2723;DHT22;1369;53.216;10.396;2023-10-31T13:04:33;12.30;99.90
2723;DHT22;1369;53.216;10.396;2023-10-31T13:07:02;12.30;99.90
2723;DHT22;1369;53.216;10.396;2023-10-31T13:09:35;12.30;99.90
2723;DHT22;1369;53.216;10.396;2023-10-31T13:12:06;12.30;99.90
2723;DHT22;1369;53.216;10.396;2023-10-31T13:14:32;12.30;99.90
2723;DHT22;1369;53.216;10.396;2023-10-31T13:16:59;12.30;99.90
2723;DHT22;1369;53.216;10.396;2023-10-31T13:19:29;12.40;99.90
2723;DHT22;1369;53.216;10.396;2023-10-31T13:21:54;12.50;99.90
2723;DHT22;1369;53.216;10.396;2023-10-31T13:24:20;12.50;99.90
2723;DHT22;1369;53.216;10.396;2023-10-31T13:26:46;12.60;99.90
2723;DHT22;1369;53.216;10.396;2023-10-31T13:29:17;12.70;99.90
2723;DHT22;1369;53.216;10.396;2023-10-31T13:31:43;12.90;99.90
2723;DHT22;1369;53.216;10.396;2023-10-31T13:34:08;12.90;99.90
2723;DHT22;1369;53.216;10.396;2023-10-31T13:36:34;12.90;99.90
2723;DHT22;1369;53.216;10.396;2023-10-31T13:39:02;13.10;99.90
2723;DHT22;1369;53.216;10.396;2023-10-31T13:41:28;13.20;99.90
2723;DHT22;1369;53.216;10.396;2023-10-31T13:43:54;13.20;99.90
2723;DHT22;1369;53.216;10.396;2023-10-31T13:46:19;13.20;99.90
2723;DHT22;1369;53.216;10.396;2023-10-31T13:48:45;13.20;99.90
2723;DHT22;1369;53.216;10.396;2023-10-31T13:51:12;13.20;99.90
2723;DHT22;1369;53.216;10.396;2023-10-31T13:53:37;13.30;99.90
2723;DHT22;1369;53.216;10.396;2023-10-31T13:56:03;13.30;99.90
2723;DHT22;1369;53.216;10.396;2023-10-31T13:58:29;13.30;99.90
2723;DHT22;1369;53.216;10.396;2023-10-31T14:00:55;13.30;99.90
2723;DHT22;1369;53.216;10.396;2023-10-31T14:03:20;13.30;99.90
2723;DHT22;1369;53.216;10.396;2023-10-31T14:05:47;13.20;99.90
2723;DHT22;1369;53.216;10.396;2023-10-31T14:08:12;13.10;99.90
2723;DHT22;1369;53.216;10.396;2023-10-31T14:10:38;13.10;99.90
2723;DHT22;1369;53.216;10.396;2023-10-31T14:13:05;13.00;99.90
2723;DHT22;1369;53.216;10.396;2023-10-31T14:15:31;12.90;99.90
2723;DHT22;1369;53.216;10.396;2023-10-31T14:17:58;12.80;99.90
2723;DHT22;1369;53.216;10.396;2023-10-31T14:20:24;12.80;99.90
2723;DHT22;1369;53.216;10.396;2023-10-31T14:22:50;12.80;99.90
2723;DHT22;1369;53.216;10.396;2023-10-31T14:25:16;12.80;99.90
2723;DHT22;1369;53.216;10.396;2023-10-31T14:27:44;12.80;99.90
2723;DHT22;1369;53.216;10.396;2023-10-31T14:30:11;12.70;99.90
2723;DHT22;1369;53.216;10.396;2023-10-31T14:32:37;12.70;99.90
2723;DHT22;1369;53.216;10.396;2023-10-31T14:35:04;12.70;99.90
2723;DHT22;1369;53.216;10.396;2023-10-31T14:37:30;12.60;99.90
2723;DHT22;1369;53.216;10.396;2023-10-31T14:39:55;12.60;99.90
2723;DHT22;1369;53.216;10.396;2023-10-31T14:42:21;12.50;99.90
2723;DHT22;1369;53.216;10.396;2023-10-31T14:44:47;12.50;99.90
2723;DHT22;1369;53.216;10.396;2023-10-31T14:47:13;12.50;99.90
2723;DHT22;1369;53.216;10.396;2023-10-31T14:49:38;12.40;99.90
2723;DHT22;1369;53.216;10.396;2023-10-31T14:52:05;12.40;99.90
2723;DHT22;1369;53.216;10.396;2023-10-31T14:54:35;12.30;99.90
2723;DHT22;1369;53.216;10.396;2023-10-31T14:57:03;12.20;99.90
2723;DHT22;1369;53.216;10.396;2023-10-31T14:59:29;12.20;99.90
2723;DHT22;1369;53.216;10.396;2023-10-31T15:01:55;12.10;99.90
2723;DHT22;1369;53.216;10.396;2023-10-31T15:04:20;12.00;99.90
2723;DHT22;1369;53.216;10.396;2023-10-31T15:06:46;12.00;99.90
2723;DHT22;1369;53.216;10.396;2023-10-31T15:09:12;11.80;99.90
2723;DHT22;1369;53.216;10.396;2023-10-31T15:11:38;11.70;99.90
2723;DHT22;1369;53.216;10.396;2023-10-31T15:14:04;11.50;99.90
2723;DHT22;1369;53.216;10.396;2023-10-31T15:16:30;11.30;99.90
2723;DHT22;1369;53.216;10.396;2023-10-31T15:18:56;11.20;99.90
2723;DHT22;1369;53.216;10.396;2023-10-31T15:21:22;11.10;99.90
2723;DHT22;1369;53.216;10.396;2023-10-31T15:23:48;11.10;99.90
2723;DHT22;1369;53.216;10.396;2023-10-31T15:26:14;11.00;99.90
2723;DHT22;1369;53.216;10.396;2023-10-31T15:28:41;10.90;99.90
2723;DHT22;1369;53.216;10.396;2023-10-31T15:31:08;10.80;99.90
2723;DHT22;1369;53.216;10.396;2023-10-31T15:33:34;10.70;99.90
2723;DHT22;1369;53.216;10.396;2023-10-31T15:36:00;10.70;99.90
2723;DHT22;1369;53.216;10.396;2023-10-31T15:38:26;10.60;99.90
2723;DHT22;1369;53.216;10.396;2023-10-31T15:40:54;10.60;99.90
2723;DHT22;1369;53.216;10.396;2023-10-31T15:43:20;10.60;99.90
2723;DHT22;1369;53.216;10.396;2023-10-31T15:45:46;10.50;99.90
2723;DHT22;1369;53.216;10.396;2023-10-31T15:48:12;10.40;99.90
2723;DHT22;1369;53.216;10.396;2023-10-31T15:50:39;10.30;99.90